Pine Island, Minnesota
Current Conditions -  °F | °C
As of 10:33 PM on Wednesday 26 Nov 2014 (Local Time) from K9MN Reporting Station
Overcast Overcast  
Wind Chill: 11°   Ceiling: 1500
Heat Index: 22°   Visibility: 5mi
Dew Point: 18°   Wind: 12mph
Humidity: 82%   Direction: 290°WNW
Pressure: 30.29"   Gusts: NA
Location:  44.2°N, 92.65°W
Report Text: K9MN 270433Z AUTO 29010KT 5SM OVC015 M05/M08 A3029 RMK AO1 T10541080
Loading
Personal Weather Stations






























Interactive Weather Map New forecast layout! Learn more

10-Day Weather Forecast

Advertisements
Track Severe Weather on mobile